sensor_id;sensor_type;location;lat;lon;timestamp;P1;durP1;ratioP1;P2;durP2;ratioP2
20729;SDS011;10526;50.850;12.928;2024-02-26T00:01:31;65.07;;;31.30;;
20729;SDS011;10526;50.850;12.928;2024-02-26T00:05:57;63.65;;;28.88;;
20729;SDS011;10526;50.850;12.928;2024-02-26T00:10:19;58.53;;;26.63;;
20729;SDS011;10526;50.850;12.928;2024-02-26T00:14:41;56.95;;;28.23;;
20729;SDS011;10526;50.850;12.928;2024-02-26T00:19:03;56.33;;;24.67;;
20729;SDS011;10526;50.850;12.928;2024-02-26T00:23:25;53.33;;;26.77;;
20729;SDS011;10526;50.850;12.928;2024-02-26T00:27:48;53.95;;;25.98;;
20729;SDS011;10526;50.850;12.928;2024-02-26T00:32:10;49.28;;;23.85;;
20729;SDS011;10526;50.850;12.928;2024-02-26T00:36:32;49.88;;;24.45;;
20729;SDS011;10526;50.850;12.928;2024-02-26T00:40:54;47.75;;;23.48;;
20729;SDS011;10526;50.850;12.928;2024-02-26T00:45:16;48.30;;;21.35;;
20729;SDS011;10526;50.850;12.928;2024-02-26T00:49:38;49.88;;;22.92;;
20729;SDS011;10526;50.850;12.928;2024-02-26T00:54:00;53.22;;;24.13;;
20729;SDS011;10526;50.850;12.928;2024-02-26T00:58:24;46.92;;;21.30;;
20729;SDS011;10526;50.850;12.928;2024-02-26T01:02:47;51.90;;;25.25;;
20729;SDS011;10526;50.850;12.928;2024-02-26T01:07:09;44.75;;;21.90;;
20729;SDS011;10526;50.850;12.928;2024-02-26T01:11:31;50.20;;;26.27;;
20729;SDS011;10526;50.850;12.928;2024-02-26T01:15:53;57.78;;;24.33;;
20729;SDS011;10526;50.850;12.928;2024-02-26T01:20:15;56.20;;;26.20;;
20729;SDS011;10526;50.850;12.928;2024-02-26T01:24:37;55.97;;;24.73;;
20729;SDS011;10526;50.850;12.928;2024-02-26T01:28:59;51.20;;;24.33;;
20729;SDS011;10526;50.850;12.928;2024-02-26T01:33:21;53.95;;;23.42;;
20729;SDS011;10526;50.850;12.928;2024-02-26T01:37:43;54.28;;;26.13;;
20729;SDS011;10526;50.850;12.928;2024-02-26T01:42:05;54.67;;;24.45;;
20729;SDS011;10526;50.850;12.928;2024-02-26T01:46:28;56.28;;;24.92;;
20729;SDS011;10526;50.850;12.928;2024-02-26T01:50:51;51.05;;;23.38;;
20729;SDS011;10526;50.850;12.928;2024-02-26T01:55:13;58.70;;;24.23;;
20729;SDS011;10526;50.850;12.928;2024-02-26T01:59:35;52.08;;;24.75;;
20729;SDS011;10526;50.850;12.928;2024-02-26T02:03:58;57.75;;;25.25;;
20729;SDS011;10526;50.850;12.928;2024-02-26T02:08:21;59.20;;;25.70;;
20729;SDS011;10526;50.850;12.928;2024-02-26T02:12:44;53.55;;;24.85;;
20729;SDS011;10526;50.850;12.928;2024-02-26T02:17:06;50.67;;;23.15;;
20729;SDS011;10526;50.850;12.928;2024-02-26T02:21:28;60.63;;;23.98;;
20729;SDS011;10526;50.850;12.928;2024-02-26T02:25:50;56.15;;;24.42;;
20729;SDS011;10526;50.850;12.928;2024-02-26T02:30:12;58.83;;;25.65;;
20729;SDS011;10526;50.850;12.928;2024-02-26T02:34:35;71.68;;;28.25;;
20729;SDS011;10526;50.850;12.928;2024-02-26T02:38:57;50.80;;;24.00;;
20729;SDS011;10526;50.850;12.928;2024-02-26T02:43:19;57.30;;;25.13;;
20729;SDS011;10526;50.850;12.928;2024-02-26T02:47:41;51.60;;;23.75;;
20729;SDS011;10526;50.850;12.928;2024-02-26T02:52:03;48.22;;;22.52;;
20729;SDS011;10526;50.850;12.928;2024-02-26T02:56:25;53.47;;;23.60;;
20729;SDS011;10526;50.850;12.928;2024-02-26T03:00:48;48.80;;;22.60;;
20729;SDS011;10526;50.850;12.928;2024-02-26T03:05:09;55.17;;;23.95;;
20729;SDS011;10526;50.850;12.928;2024-02-26T03:09:32;54.40;;;22.58;;
20729;SDS011;10526;50.850;12.928;2024-02-26T03:13:54;49.15;;;22.45;;
20729;SDS011;10526;50.850;12.928;2024-02-26T03:18:16;59.00;;;23.27;;
20729;SDS011;10526;50.850;12.928;2024-02-26T03:22:39;51.40;;;22.50;;
20729;SDS011;10526;50.850;12.928;2024-02-26T03:27:01;55.25;;;24.42;;
20729;SDS011;10526;50.850;12.928;2024-02-26T03:31:23;48.58;;;22.02;;
20729;SDS011;10526;50.850;12.928;2024-02-26T03:35:45;52.50;;;23.83;;
20729;SDS011;10526;50.850;12.928;2024-02-26T03:40:07;50.90;;;23.05;;
20729;SDS011;10526;50.850;12.928;2024-02-26T03:44:29;55.20;;;24.58;;
20729;SDS011;10526;50.850;12.928;2024-02-26T03:48:54;55.78;;;23.42;;
20729;SDS011;10526;50.850;12.928;2024-02-26T03:53:17;49.20;;;21.80;;
20729;SDS011;10526;50.850;12.928;2024-02-26T03:57:39;47.38;;;21.77;;
20729;SDS011;10526;50.850;12.928;2024-02-26T04:02:01;52.45;;;21.45;;
20729;SDS011;10526;50.850;12.928;2024-02-26T04:06:23;51.70;;;22.10;;
20729;SDS011;10526;50.850;12.928;2024-02-26T04:10:45;51.65;;;23.30;;
20729;SDS011;10526;50.850;12.928;2024-02-26T04:15:09;47.45;;;22.40;;
20729;SDS011;10526;50.850;12.928;2024-02-26T04:19:31;47.60;;;21.42;;
20729;SDS011;10526;50.850;12.928;2024-02-26T04:23:53;56.03;;;24.50;;
20729;SDS011;10526;50.850;12.928;2024-02-26T04:28:21;58.97;;;25.73;;
20729;SDS011;10526;50.850;12.928;2024-02-26T04:32:46;57.97;;;24.13;;
20729;SDS011;10526;50.850;12.928;2024-02-26T04:37:08;59.20;;;25.23;;
20729;SDS011;10526;50.850;12.928;2024-02-26T04:41:30;55.70;;;23.55;;
20729;SDS011;10526;50.850;12.928;2024-02-26T04:45:53;55.28;;;22.50;;
20729;SDS011;10526;50.850;12.928;2024-02-26T04:50:16;59.50;;;25.58;;
20729;SDS011;10526;50.850;12.928;2024-02-26T04:54:38;49.22;;;22.65;;
20729;SDS011;10526;50.850;12.928;2024-02-26T04:59:00;46.70;;;21.88;;
20729;SDS011;10526;50.850;12.928;2024-02-26T05:03:21;60.35;;;23.80;;
20729;SDS011;10526;50.850;12.928;2024-02-26T05:07:44;48.97;;;22.77;;
20729;SDS011;10526;50.850;12.928;2024-02-26T05:12:06;54.83;;;24.42;;
20729;SDS011;10526;50.850;12.928;2024-02-26T05:16:28;55.28;;;22.63;;
20729;SDS011;10526;50.850;12.928;2024-02-26T05:20:52;55.03;;;24.92;;
20729;SDS011;10526;50.850;12.928;2024-02-26T05:25:14;50.05;;;23.13;;
20729;SDS011;10526;50.850;12.928;2024-02-26T05:29:36;58.13;;;24.02;;
20729;SDS011;10526;50.850;12.928;2024-02-26T05:33:58;67.80;;;26.02;;
20729;SDS011;10526;50.850;12.928;2024-02-26T05:38:20;62.83;;;26.27;;
20729;SDS011;10526;50.850;12.928;2024-02-26T05:42:46;56.95;;;24.33;;
20729;SDS011;10526;50.850;12.928;2024-02-26T05:47:08;62.80;;;25.88;;
20729;SDS011;10526;50.850;12.928;2024-02-26T05:51:32;56.67;;;24.02;;
20729;SDS011;10526;50.850;12.928;2024-02-26T05:55:54;56.88;;;22.65;;
20729;SDS011;10526;50.850;12.928;2024-02-26T06:00:16;53.80;;;22.02;;
20729;SDS011;10526;50.850;12.928;2024-02-26T06:04:38;53.50;;;22.27;;
20729;SDS011;10526;50.850;12.928;2024-02-26T06:09:00;64.15;;;26.63;;
20729;SDS011;10526;50.850;12.928;2024-02-26T06:13:22;68.45;;;25.75;;
20729;SDS011;10526;50.850;12.928;2024-02-26T06:17:45;68.78;;;26.08;;
20729;SDS011;10526;50.850;12.928;2024-02-26T06:22:07;63.70;;;26.55;;
20729;SDS011;10526;50.850;12.928;2024-02-26T06:26:29;63.17;;;24.42;;
20729;SDS011;10526;50.850;12.928;2024-02-26T06:30:53;76.47;;;30.60;;
20729;SDS011;10526;50.850;12.928;2024-02-26T06:35:15;82.38;;;34.35;;
20729;SDS011;10526;50.850;12.928;2024-02-26T06:39:37;82.20;;;36.08;;
20729;SDS011;10526;50.850;12.928;2024-02-26T06:43:59;80.57;;;35.13;;
20729;SDS011;10526;50.850;12.928;2024-02-26T06:48:23;63.05;;;29.80;;
20729;SDS011;10526;50.850;12.928;2024-02-26T06:52:45;59.05;;;26.05;;
20729;SDS011;10526;50.850;12.928;2024-02-26T06:57:08;52.58;;;26.33;;
20729;SDS011;10526;50.850;12.928;2024-02-26T07:01:30;49.83;;;23.98;;
20729;SDS011;10526;50.850;12.928;2024-02-26T07:05:52;50.75;;;25.20;;
20729;SDS011;10526;50.850;12.928;2024-02-26T07:10:14;54.70;;;27.15;;
20729;SDS011;10526;50.850;12.928;2024-02-26T07:14:36;43.30;;;21.83;;
20729;SDS011;10526;50.850;12.928;2024-02-26T07:18:58;27.85;;;15.15;;
20729;SDS011;10526;50.850;12.928;2024-02-26T07:23:21;24.92;;;12.20;;
20729;SDS011;10526;50.850;12.928;2024-02-26T07:27:43;20.20;;;9.82;;
20729;SDS011;10526;50.850;12.928;2024-02-26T07:32:05;19.05;;;9.20;;
20729;SDS011;10526;50.850;12.928;2024-02-26T07:36:27;19.58;;;9.27;;
20729;SDS011;10526;50.850;12.928;2024-02-26T07:40:50;17.75;;;8.45;;
20729;SDS011;10526;50.850;12.928;2024-02-26T07:45:22;16.95;;;8.90;;
20729;SDS011;10526;50.850;12.928;2024-02-26T07:49:44;21.40;;;8.88;;
20729;SDS011;10526;50.850;12.928;2024-02-26T07:54:06;19.58;;;10.10;;
20729;SDS011;10526;50.850;12.928;2024-02-26T07:58:28;17.92;;;8.68;;
20729;SDS011;10526;50.850;12.928;2024-02-26T08:02:50;18.52;;;9.43;;
20729;SDS011;10526;50.850;12.928;2024-02-26T08:07:12;13.82;;;7.47;;
20729;SDS011;10526;50.850;12.928;2024-02-26T08:11:35;16.52;;;7.70;;
20729;SDS011;10526;50.850;12.928;2024-02-26T08:15:57;15.25;;;7.90;;
20729;SDS011;10526;50.850;12.928;2024-02-26T08:20:19;15.85;;;7.75;;
20729;SDS011;10526;50.850;12.928;2024-02-26T08:24:42;13.55;;;7.07;;
20729;SDS011;10526;50.850;12.928;2024-02-26T08:29:04;17.38;;;7.63;;
20729;SDS011;10526;50.850;12.928;2024-02-26T08:33:26;16.48;;;8.18;;
20729;SDS011;10526;50.850;12.928;2024-02-26T08:37:48;15.60;;;7.28;;
20729;SDS011;10526;50.850;12.928;2024-02-26T08:42:10;16.20;;;8.15;;
20729;SDS011;10526;50.850;12.928;2024-02-26T08:46:32;18.38;;;7.75;;
20729;SDS011;10526;50.850;12.928;2024-02-26T08:50:54;13.98;;;7.30;;
20729;SDS011;10526;50.850;12.928;2024-02-26T08:55:26;19.30;;;6.63;;
20729;SDS011;10526;50.850;12.928;2024-02-26T08:59:48;15.70;;;6.90;;
20729;SDS011;10526;50.850;12.928;2024-02-26T09:04:10;13.70;;;6.80;;
20729;SDS011;10526;50.850;12.928;2024-02-26T09:08:32;11.48;;;5.95;;
20729;SDS011;10526;50.850;12.928;2024-02-26T09:12:54;13.30;;;6.22;;
20729;SDS011;10526;50.850;12.928;2024-02-26T09:17:16;13.73;;;6.28;;
20729;SDS011;10526;50.850;12.928;2024-02-26T09:21:42;11.77;;;4.90;;
20729;SDS011;10526;50.850;12.928;2024-02-26T09:26:08;10.15;;;4.55;;
20729;SDS011;10526;50.850;12.928;2024-02-26T09:30:30;13.30;;;4.45;;
20729;SDS011;10526;50.850;12.928;2024-02-26T09:34:52;11.35;;;5.30;;
20729;SDS011;10526;50.850;12.928;2024-02-26T09:39:14;13.18;;;6.97;;
20729;SDS011;10526;50.850;12.928;2024-02-26T09:43:41;13.27;;;6.32;;
20729;SDS011;10526;50.850;12.928;2024-02-26T09:48:07;14.68;;;5.53;;
20729;SDS011;10526;50.850;12.928;2024-02-26T09:52:31;13.10;;;5.47;;
20729;SDS011;10526;50.850;12.928;2024-02-26T09:56:55;13.30;;;5.47;;
20729;SDS011;10526;50.850;12.928;2024-02-26T10:01:24;9.88;;;4.03;;
20729;SDS011;10526;50.850;12.928;2024-02-26T10:05:48;10.07;;;4.20;;
20729;SDS011;10526;50.850;12.928;2024-02-26T10:10:12;10.52;;;4.75;;
20729;SDS011;10526;50.850;12.928;2024-02-26T10:14:35;9.70;;;4.80;;
20729;SDS011;10526;50.850;12.928;2024-02-26T10:18:57;12.55;;;4.90;;
20729;SDS011;10526;50.850;12.928;2024-02-26T10:23:20;11.38;;;4.68;;
20729;SDS011;10526;50.850;12.928;2024-02-26T10:27:43;10.88;;;4.53;;
20729;SDS011;10526;50.850;12.928;2024-02-26T10:32:06;11.05;;;4.43;;
20729;SDS011;10526;50.850;12.928;2024-02-26T10:36:28;10.23;;;4.70;;
20729;SDS011;10526;50.850;12.928;2024-02-26T10:41:08;8.75;;;3.60;;
20729;SDS011;10526;50.850;12.928;2024-02-26T10:45:36;8.85;;;3.65;;
20729;SDS011;10526;50.850;12.928;2024-02-26T10:49:59;8.10;;;4.03;;
20729;SDS011;10526;50.850;12.928;2024-02-26T10:54:27;10.35;;;4.47;;
20729;SDS011;10526;50.850;12.928;2024-02-26T10:58:51;10.23;;;4.05;;
20729;SDS011;10526;50.850;12.928;2024-02-26T11:03:14;30.90;;;16.88;;
20729;SDS011;10526;50.850;12.928;2024-02-26T11:07:41;10.90;;;3.95;;
20729;SDS011;10526;50.850;12.928;2024-02-26T11:12:04;10.95;;;4.43;;
20729;SDS011;10526;50.850;12.928;2024-02-26T11:16:31;9.77;;;4.32;;
20729;SDS011;10526;50.850;12.928;2024-02-26T11:20:56;11.57;;;4.38;;
20729;SDS011;10526;50.850;12.928;2024-02-26T11:25:19;10.75;;;4.25;;
20729;SDS011;10526;50.850;12.928;2024-02-26T11:29:52;10.95;;;4.32;;
20729;SDS011;10526;50.850;12.928;2024-02-26T11:34:16;9.13;;;4.10;;
20729;SDS011;10526;50.850;12.928;2024-02-26T11:38:39;11.43;;;3.83;;
20729;SDS011;10526;50.850;12.928;2024-02-26T11:43:01;8.73;;;3.88;;
20729;SDS011;10526;50.850;12.928;2024-02-26T11:47:23;10.18;;;4.25;;
20729;SDS011;10526;50.850;12.928;2024-02-26T11:51:45;11.85;;;4.28;;
20729;SDS011;10526;50.850;12.928;2024-02-26T11:56:22;12.15;;;4.28;;
20729;SDS011;10526;50.850;12.928;2024-02-26T12:00:49;10.32;;;4.10;;
20729;SDS011;10526;50.850;12.928;2024-02-26T12:05:12;16.42;;;5.13;;
20729;SDS011;10526;50.850;12.928;2024-02-26T12:09:41;9.15;;;3.97;;
20729;SDS011;10526;50.850;12.928;2024-02-26T12:14:05;11.48;;;4.43;;
20729;SDS011;10526;50.850;12.928;2024-02-26T12:18:29;9.65;;;4.00;;
20729;SDS011;10526;50.850;12.928;2024-02-26T12:22:52;9.00;;;3.75;;
20729;SDS011;10526;50.850;12.928;2024-02-26T12:27:16;7.45;;;3.55;;
20729;SDS011;10526;50.850;12.928;2024-02-26T12:31:39;11.75;;;3.97;;
20729;SDS011;10526;50.850;12.928;2024-02-26T12:36:01;9.52;;;3.75;;
20729;SDS011;10526;50.850;12.928;2024-02-26T12:40:24;10.50;;;3.97;;
20729;SDS011;10526;50.850;12.928;2024-02-26T12:44:47;12.00;;;3.83;;
20729;SDS011;10526;50.850;12.928;2024-02-26T12:49:14;14.93;;;3.42;;
20729;SDS011;10526;50.850;12.928;2024-02-26T12:53:38;9.10;;;3.80;;
20729;SDS011;10526;50.850;12.928;2024-02-26T12:58:01;14.77;;;4.55;;
20729;SDS011;10526;50.850;12.928;2024-02-26T13:02:23;9.18;;;4.03;;
20729;SDS011;10526;50.850;12.928;2024-02-26T13:06:45;14.02;;;4.50;;
20729;SDS011;10526;50.850;12.928;2024-02-26T13:11:10;13.95;;;5.28;;
20729;SDS011;10526;50.850;12.928;2024-02-26T13:15:32;11.93;;;5.05;;
20729;SDS011;10526;50.850;12.928;2024-02-26T13:19:54;16.77;;;5.75;;
20729;SDS011;10526;50.850;12.928;2024-02-26T13:24:16;11.85;;;5.15;;
20729;SDS011;10526;50.850;12.928;2024-02-26T13:28:43;9.65;;;3.72;;
20729;SDS011;10526;50.850;12.928;2024-02-26T13:33:09;16.75;;;5.22;;
20729;SDS011;10526;50.850;12.928;2024-02-26T13:37:37;13.50;;;5.60;;
20729;SDS011;10526;50.850;12.928;2024-02-26T13:42:00;13.05;;;5.50;;
20729;SDS011;10526;50.850;12.928;2024-02-26T13:46:23;12.70;;;5.57;;
20729;SDS011;10526;50.850;12.928;2024-02-26T13:50:44;15.07;;;6.38;;
20729;SDS011;10526;50.850;12.928;2024-02-26T13:55:07;13.32;;;5.68;;
20729;SDS011;10526;50.850;12.928;2024-02-26T13:59:29;14.07;;;6.32;;
20729;SDS011;10526;50.850;12.928;2024-02-26T14:03:55;15.85;;;6.00;;
20729;SDS011;10526;50.850;12.928;2024-02-26T14:08:18;15.25;;;6.30;;
20729;SDS011;10526;50.850;12.928;2024-02-26T14:12:40;16.20;;;6.85;;
20729;SDS011;10526;50.850;12.928;2024-02-26T14:17:02;14.63;;;6.55;;
20729;SDS011;10526;50.850;12.928;2024-02-26T14:21:24;15.70;;;7.15;;
20729;SDS011;10526;50.850;12.928;2024-02-26T14:25:48;16.63;;;7.43;;
20729;SDS011;10526;50.850;12.928;2024-02-26T14:30:11;16.00;;;6.65;;
20729;SDS011;10526;50.850;12.928;2024-02-26T14:34:33;15.52;;;7.35;;
20729;SDS011;10526;50.850;12.928;2024-02-26T14:38:55;19.73;;;7.20;;
20729;SDS011;10526;50.850;12.928;2024-02-26T14:43:18;14.55;;;6.82;;
20729;SDS011;10526;50.850;12.928;2024-02-26T14:47:40;15.30;;;7.28;;
20729;SDS011;10526;50.850;12.928;2024-02-26T14:52:02;17.88;;;8.50;;
20729;SDS011;10526;50.850;12.928;2024-02-26T14:56:24;18.10;;;7.40;;
20729;SDS011;10526;50.850;12.928;2024-02-26T15:00:46;18.13;;;8.63;;
20729;SDS011;10526;50.850;12.928;2024-02-26T15:05:08;20.98;;;7.28;;
20729;SDS011;10526;50.850;12.928;2024-02-26T15:09:32;17.40;;;7.55;;
20729;SDS011;10526;50.850;12.928;2024-02-26T15:13:55;18.35;;;9.30;;
20729;SDS011;10526;50.850;12.928;2024-02-26T15:18:17;21.70;;;10.82;;
20729;SDS011;10526;50.850;12.928;2024-02-26T15:22:41;20.73;;;10.43;;
20729;SDS011;10526;50.850;12.928;2024-02-26T15:27:04;17.92;;;9.77;;
20729;SDS011;10526;50.850;12.928;2024-02-26T15:31:26;18.95;;;9.65;;
20729;SDS011;10526;50.850;12.928;2024-02-26T15:35:48;22.38;;;8.85;;
20729;SDS011;10526;50.850;12.928;2024-02-26T15:40:10;19.83;;;9.57;;
20729;SDS011;10526;50.850;12.928;2024-02-26T15:44:33;20.50;;;9.77;;
20729;SDS011;10526;50.850;12.928;2024-02-26T15:48:55;23.50;;;10.27;;
20729;SDS011;10526;50.850;12.928;2024-02-26T15:53:17;22.15;;;11.35;;
20729;SDS011;10526;50.850;12.928;2024-02-26T15:57:40;20.60;;;9.80;;
20729;SDS011;10526;50.850;12.928;2024-02-26T16:02:03;24.35;;;12.00;;
20729;SDS011;10526;50.850;12.928;2024-02-26T16:06:32;23.45;;;11.57;;
20729;SDS011;10526;50.850;12.928;2024-02-26T16:11:05;23.60;;;12.38;;
20729;SDS011;10526;50.850;12.928;2024-02-26T16:15:27;27.02;;;12.68;;
20729;SDS011;10526;50.850;12.928;2024-02-26T16:19:50;24.75;;;12.40;;
20729;SDS011;10526;50.850;12.928;2024-02-26T16:24:13;28.48;;;14.07;;
20729;SDS011;10526;50.850;12.928;2024-02-26T16:28:35;28.42;;;13.93;;
20729;SDS011;10526;50.850;12.928;2024-02-26T16:32:57;26.15;;;13.00;;
20729;SDS011;10526;50.850;12.928;2024-02-26T16:37:19;25.23;;;12.52;;
20729;SDS011;10526;50.850;12.928;2024-02-26T16:41:41;29.13;;;12.82;;
20729;SDS011;10526;50.850;12.928;2024-02-26T16:46:03;26.17;;;13.15;;
20729;SDS011;10526;50.850;12.928;2024-02-26T16:50:25;31.92;;;14.18;;
20729;SDS011;10526;50.850;12.928;2024-02-26T16:54:47;31.45;;;14.52;;
20729;SDS011;10526;50.850;12.928;2024-02-26T16:59:10;26.42;;;14.05;;
20729;SDS011;10526;50.850;12.928;2024-02-26T17:03:33;25.83;;;13.85;;
20729;SDS011;10526;50.850;12.928;2024-02-26T17:07:57;28.45;;;13.70;;
20729;SDS011;10526;50.850;12.928;2024-02-26T17:12:18;43.13;;;20.17;;
20729;SDS011;10526;50.850;12.928;2024-02-26T17:16:43;31.25;;;15.23;;
20729;SDS011;10526;50.850;12.928;2024-02-26T17:21:05;35.33;;;15.55;;
20729;SDS011;10526;50.850;12.928;2024-02-26T17:25:29;30.08;;;13.48;;
20729;SDS011;10526;50.850;12.928;2024-02-26T17:29:51;32.63;;;15.52;;
20729;SDS011;10526;50.850;12.928;2024-02-26T17:34:13;29.02;;;14.90;;
20729;SDS011;10526;50.850;12.928;2024-02-26T17:38:36;31.38;;;15.65;;
20729;SDS011;10526;50.850;12.928;2024-02-26T17:42:58;27.98;;;14.35;;
20729;SDS011;10526;50.850;12.928;2024-02-26T17:47:20;32.75;;;16.27;;
20729;SDS011;10526;50.850;12.928;2024-02-26T17:51:42;31.95;;;14.65;;
20729;SDS011;10526;50.850;12.928;2024-02-26T17:56:04;33.58;;;16.08;;
20729;SDS011;10526;50.850;12.928;2024-02-26T18:00:28;32.80;;;17.25;;
20729;SDS011;10526;50.850;12.928;2024-02-26T18:04:54;33.03;;;17.08;;
20729;SDS011;10526;50.850;12.928;2024-02-26T18:09:16;33.42;;;17.05;;
20729;SDS011;10526;50.850;12.928;2024-02-26T18:13:39;34.28;;;17.65;;
20729;SDS011;10526;50.850;12.928;2024-02-26T18:18:06;32.60;;;16.73;;
20729;SDS011;10526;50.850;12.928;2024-02-26T18:22:28;36.28;;;17.55;;
20729;SDS011;10526;50.850;12.928;2024-02-26T18:26:50;38.38;;;17.25;;
20729;SDS011;10526;50.850;12.928;2024-02-26T18:31:13;35.60;;;18.08;;
20729;SDS011;10526;50.850;12.928;2024-02-26T18:35:36;36.22;;;17.17;;
20729;SDS011;10526;50.850;12.928;2024-02-26T18:39:58;37.50;;;17.83;;
20729;SDS011;10526;50.850;12.928;2024-02-26T18:44:20;35.67;;;17.65;;
20729;SDS011;10526;50.850;12.928;2024-02-26T18:48:42;33.75;;;16.85;;
20729;SDS011;10526;50.850;12.928;2024-02-26T18:53:05;34.17;;;16.75;;
20729;SDS011;10526;50.850;12.928;2024-02-26T18:57:27;32.78;;;16.77;;
20729;SDS011;10526;50.850;12.928;2024-02-26T19:01:49;31.83;;;17.02;;
20729;SDS011;10526;50.850;12.928;2024-02-26T19:06:11;36.92;;;17.85;;
20729;SDS011;10526;50.850;12.928;2024-02-26T19:10:34;39.65;;;18.05;;
20729;SDS011;10526;50.850;12.928;2024-02-26T19:14:56;39.78;;;17.65;;
20729;SDS011;10526;50.850;12.928;2024-02-26T19:19:18;40.25;;;18.90;;
20729;SDS011;10526;50.850;12.928;2024-02-26T19:23:40;37.22;;;18.90;;
20729;SDS011;10526;50.850;12.928;2024-02-26T19:28:02;42.38;;;18.55;;
20729;SDS011;10526;50.850;12.928;2024-02-26T19:32:24;34.85;;;17.80;;
20729;SDS011;10526;50.850;12.928;2024-02-26T19:36:46;45.20;;;19.63;;
20729;SDS011;10526;50.850;12.928;2024-02-26T19:41:08;39.97;;;18.52;;
20729;SDS011;10526;50.850;12.928;2024-02-26T19:45:30;45.40;;;20.20;;
20729;SDS011;10526;50.850;12.928;2024-02-26T19:49:53;38.60;;;20.13;;
20729;SDS011;10526;50.850;12.928;2024-02-26T19:54:15;43.78;;;21.67;;
20729;SDS011;10526;50.850;12.928;2024-02-26T19:58:37;45.55;;;21.73;;
20729;SDS011;10526;50.850;12.928;2024-02-26T20:02:59;45.08;;;22.23;;
20729;SDS011;10526;50.850;12.928;2024-02-26T20:07:21;39.28;;;21.20;;
20729;SDS011;10526;50.850;12.928;2024-02-26T20:11:43;43.22;;;21.08;;
20729;SDS011;10526;50.850;12.928;2024-02-26T20:16:06;41.75;;;21.05;;
20729;SDS011;10526;50.850;12.928;2024-02-26T20:20:28;51.15;;;22.90;;
20729;SDS011;10526;50.850;12.928;2024-02-26T20:24:50;46.03;;;20.95;;
20729;SDS011;10526;50.850;12.928;2024-02-26T20:29:16;50.67;;;21.20;;
20729;SDS011;10526;50.850;12.928;2024-02-26T20:33:38;43.63;;;20.38;;
20729;SDS011;10526;50.850;12.928;2024-02-26T20:38:02;37.53;;;18.88;;
20729;SDS011;10526;50.850;12.928;2024-02-26T20:42:24;42.80;;;19.85;;
20729;SDS011;10526;50.850;12.928;2024-02-26T20:46:47;38.20;;;17.80;;
20729;SDS011;10526;50.850;12.928;2024-02-26T20:51:09;42.72;;;19.55;;
20729;SDS011;10526;50.850;12.928;2024-02-26T20:55:31;40.65;;;19.45;;
20729;SDS011;10526;50.850;12.928;2024-02-26T20:59:54;47.40;;;23.38;;
20729;SDS011;10526;50.850;12.928;2024-02-26T21:04:16;45.30;;;20.17;;
20729;SDS011;10526;50.850;12.928;2024-02-26T21:08:42;44.42;;;20.08;;
20729;SDS011;10526;50.850;12.928;2024-02-26T21:13:05;47.03;;;22.02;;
20729;SDS011;10526;50.850;12.928;2024-02-26T21:17:28;52.45;;;22.17;;
20729;SDS011;10526;50.850;12.928;2024-02-26T21:21:50;59.92;;;28.50;;
20729;SDS011;10526;50.850;12.928;2024-02-26T21:26:14;51.75;;;26.73;;
20729;SDS011;10526;50.850;12.928;2024-02-26T21:30:36;51.85;;;26.05;;
20729;SDS011;10526;50.850;12.928;2024-02-26T21:34:59;44.97;;;22.45;;
20729;SDS011;10526;50.850;12.928;2024-02-26T21:39:22;47.22;;;22.77;;
20729;SDS011;10526;50.850;12.928;2024-02-26T21:43:44;46.65;;;21.98;;
20729;SDS011;10526;50.850;12.928;2024-02-26T21:48:13;45.92;;;23.02;;
20729;SDS011;10526;50.850;12.928;2024-02-26T21:52:35;45.47;;;22.20;;
20729;SDS011;10526;50.850;12.928;2024-02-26T21:56:58;47.70;;;22.92;;
20729;SDS011;10526;50.850;12.928;2024-02-26T22:01:20;49.35;;;23.15;;
20729;SDS011;10526;50.850;12.928;2024-02-26T22:05:42;45.30;;;23.45;;
20729;SDS011;10526;50.850;12.928;2024-02-26T22:10:05;49.08;;;24.25;;
20729;SDS011;10526;50.850;12.928;2024-02-26T22:14:29;43.85;;;22.50;;
20729;SDS011;10526;50.850;12.928;2024-02-26T22:18:51;45.53;;;22.08;;
20729;SDS011;10526;50.850;12.928;2024-02-26T22:23:13;50.70;;;24.55;;
20729;SDS011;10526;50.850;12.928;2024-02-26T22:27:36;43.50;;;22.63;;
20729;SDS011;10526;50.850;12.928;2024-02-26T22:31:58;47.63;;;23.00;;
20729;SDS011;10526;50.850;12.928;2024-02-26T22:36:21;42.45;;;22.60;;
20729;SDS011;10526;50.850;12.928;2024-02-26T22:40:43;43.40;;;20.80;;
20729;SDS011;10526;50.850;12.928;2024-02-26T22:45:05;47.42;;;21.58;;
20729;SDS011;10526;50.850;12.928;2024-02-26T22:49:28;43.75;;;22.73;;
20729;SDS011;10526;50.850;12.928;2024-02-26T22:53:52;48.72;;;22.33;;
20729;SDS011;10526;50.850;12.928;2024-02-26T22:58:14;44.13;;;21.92;;
20729;SDS011;10526;50.850;12.928;2024-02-26T23:02:36;45.72;;;23.50;;
20729;SDS011;10526;50.850;12.928;2024-02-26T23:06:58;44.92;;;21.45;;
20729;SDS011;10526;50.850;12.928;2024-02-26T23:11:20;45.42;;;23.20;;
20729;SDS011;10526;50.850;12.928;2024-02-26T23:15:43;44.90;;;21.48;;
20729;SDS011;10526;50.850;12.928;2024-02-26T23:20:05;42.80;;;22.30;;
20729;SDS011;10526;50.850;12.928;2024-02-26T23:24:31;47.28;;;22.27;;
20729;SDS011;10526;50.850;12.928;2024-02-26T23:28:53;43.05;;;21.20;;
20729;SDS011;10526;50.850;12.928;2024-02-26T23:33:15;41.65;;;21.45;;
20729;SDS011;10526;50.850;12.928;2024-02-26T23:37:37;44.83;;;21.92;;
20729;SDS011;10526;50.850;12.928;2024-02-26T23:41:59;44.78;;;22.23;;
20729;SDS011;10526;50.850;12.928;2024-02-26T23:46:21;41.60;;;20.67;;
20729;SDS011;10526;50.850;12.928;2024-02-26T23:50:42;47.33;;;20.33;;
20729;SDS011;10526;50.850;12.928;2024-02-26T23:55:04;40.20;;;21.00;;
20729;SDS011;10526;50.850;12.928;2024-02-26T23:59:27;43.97;;;20.25;;
